Time;durP1;ratioP1;P1;durP2;ratioP2;P2;SDS_P1;SDS_P2;PMS_P1;PMS_P2;Temp;Humidity;BMP_temperature;BMP_pressure;BME280_temperature;BME280_humidity;BME280_pressure;Samples;Min_cycle;Max_cycle;Signal;HPM_P1;HPM_P2
2023/05/16 00:01:12;;;;;;;55.17;7.75;;;;;;;;;;4990938;28;20037;-47
2023/05/16 00:03:41;;;;;;;57.80;7.80;;;;;;;;;;5003216;28;20053;-45
2023/05/16 00:06:08;;;;;;;57.63;7.68;;;;;;;;;;5004056;28;20045;-45
2023/05/16 00:08:35;;;;;;;39.53;7.28;;;;;;;;;;5007269;28;20034;-44
2023/05/16 00:11:02;;;;;;;49.72;7.78;;;;;;;;;;4993657;28;20038;-47
2023/05/16 00:13:30;;;;;;;34.05;7.28;;;;;;;;;;5008746;28;20034;-48
2023/05/16 00:16:01;;;;;;;43.53;7.90;;;;;;;;;;5012873;28;20037;-47
2023/05/16 00:18:29;;;;;;;38.50;8.13;;;;;;;;;;5012929;28;20128;-45
2023/05/16 00:20:56;;;;;;;55.45;10.02;;;;;;;;;;4999842;28;20053;-45
2023/05/16 00:23:23;;;;;;;50.10;10.25;;;;;;;;;;5002646;28;20037;-45
2023/05/16 00:25:50;;;;;;;61.40;10.57;;;;;;;;;;5009385;28;20030;-44
2023/05/16 00:28:17;;;;;;;43.60;9.38;;;;;;;;;;4993672;28;20026;-45
2023/05/16 00:30:44;;;;;;;43.22;10.40;;;;;;;;;;4993361;28;20022;-45
2023/05/16 00:33:11;;;;;;;46.90;9.95;;;;;;;;;;4993245;28;20034;-45
2023/05/16 00:35:38;;;;;;;49.67;9.65;;;;;;;;;;5008635;28;20029;-46
2023/05/16 00:38:05;;;;;;;46.97;8.80;;;;;;;;;;4999408;28;20427;-44
2023/05/16 00:40:32;;;;;;;46.00;9.45;;;;;;;;;;5012805;28;20403;-43
2023/05/16 00:42:59;;;;;;;47.75;9.90;;;;;;;;;;5012751;28;20069;-49
2023/05/16 00:45:26;;;;;;;43.33;9.13;;;;;;;;;;5012440;28;20120;-46
2023/05/16 00:47:53;;;;;;;52.63;12.02;;;;;;;;;;5013321;28;20030;-44
2023/05/16 00:50:20;;;;;;;57.17;11.90;;;;;;;;;;5013192;28;20026;-45
2023/05/16 00:52:47;;;;;;;50.90;12.05;;;;;;;;;;5013195;28;20025;-44
2023/05/16 00:55:15;;;;;;;59.35;13.45;;;;;;;;;;4995764;28;20037;-45
2023/05/16 00:57:42;;;;;;;64.13;15.10;;;;;;;;;;5013397;28;20113;-43
2023/05/16 01:00:13;;;;;;;65.45;14.95;;;;;;;;;;5012668;28;20402;-43
2023/05/16 01:02:40;;;;;;;84.40;17.70;;;;;;;;;;5011189;28;20057;-43
2023/05/16 01:05:08;;;;;;;82.80;17.27;;;;;;;;;;5012075;28;20050;-43
2023/05/16 01:07:38;;;;;;;73.97;19.05;;;;;;;;;;5013037;28;20128;-43
2023/05/16 01:10:06;;;;;;;80.85;19.45;;;;;;;;;;5012844;28;20033;-45
2023/05/16 01:12:48;;;;;;;86.32;20.70;;;;;;;;;;5012938;28;20033;-45
2023/05/16 01:15:17;;;;;;;93.00;20.05;;;;;;;;;;5000724;28;20503;-45
2023/05/16 01:17:56;;;;;;;99.90;21.38;;;;;;;;;;5013129;28;20033;-44
2023/05/16 01:20:26;;;;;;;79.32;19.17;;;;;;;;;;5012877;28;20485;-45
2023/05/16 01:23:04;;;;;;;98.53;19.90;;;;;;;;;;5012591;28;20021;-44
2023/05/16 01:25:32;;;;;;;94.35;19.10;;;;;;;;;;5012871;28;20562;-42
2023/05/16 01:27:59;;;;;;;93.47;19.15;;;;;;;;;;5012308;28;20057;-44
2023/05/16 01:30:26;;;;;;;80.20;18.05;;;;;;;;;;5012491;28;20080;-45
2023/05/16 01:32:53;;;;;;;71.38;17.95;;;;;;;;;;4993219;28;20041;-46
2023/05/16 01:35:20;;;;;;;74.32;18.00;;;;;;;;;;5015014;28;20040;-44
2023/05/16 01:37:50;;;;;;;76.03;17.25;;;;;;;;;;5015612;28;20025;-42
2023/05/16 01:40:22;;;;;;;66.63;15.80;;;;;;;;;;5015619;28;20065;-44
2023/05/16 01:42:50;;;;;;;71.33;15.83;;;;;;;;;;5013184;28;20076;-45
2023/05/16 01:45:29;;;;;;;57.70;15.57;;;;;;;;;;5008676;28;20025;-43
2023/05/16 01:48:01;;;;;;;54.70;15.13;;;;;;;;;;5010472;28;20092;-44
2023/05/16 01:50:29;;;;;;;63.55;16.02;;;;;;;;;;5010718;28;20041;-42
2023/05/16 01:53:01;;;;;;;60.08;14.10;;;;;;;;;;5010123;28;20503;-44
2023/05/16 01:55:43;;;;;;;54.03;13.65;;;;;;;;;;5010580;28;20087;-46
2023/05/16 01:58:11;;;;;;;51.67;13.95;;;;;;;;;;5010107;28;20037;-43
2023/05/16 02:00:38;;;;;;;60.15;14.38;;;;;;;;;;5008526;28;20029;-43
2023/05/16 02:03:05;;;;;;;47.63;12.73;;;;;;;;;;5009639;28;20068;-44
2023/05/16 02:05:32;;;;;;;57.30;14.18;;;;;;;;;;5011001;28;20029;-44
2023/05/16 02:08:00;;;;;;;55.55;14.32;;;;;;;;;;5012097;28;20131;-44
2023/05/16 02:10:27;;;;;;;39.65;12.05;;;;;;;;;;5010912;28;20120;-44
2023/05/16 02:12:54;;;;;;;50.95;13.65;;;;;;;;;;5012163;28;20033;-45
2023/05/16 02:15:21;;;;;;;44.25;13.15;;;;;;;;;;5012022;28;20029;-44
2023/05/16 02:17:48;;;;;;;46.13;12.48;;;;;;;;;;5011515;28;20022;-44
2023/05/16 02:20:15;;;;;;;42.70;12.00;;;;;;;;;;5012116;28;20156;-44
2023/05/16 02:22:43;;;;;;;49.80;11.57;;;;;;;;;;5012000;28;20030;-44
2023/05/16 02:25:10;;;;;;;39.28;12.20;;;;;;;;;;5011983;28;20030;-44
2023/05/16 02:27:37;;;;;;;44.67;11.25;;;;;;;;;;5011800;28;20037;-44
2023/05/16 02:30:04;;;;;;;44.30;11.43;;;;;;;;;;5012049;28;20552;-44
2023/05/16 02:32:32;;;;;;;38.35;10.98;;;;;;;;;;5011888;28;20022;-44
2023/05/16 02:34:59;;;;;;;39.47;10.90;;;;;;;;;;5011856;28;20061;-44
2023/05/16 02:37:26;;;;;;;39.45;10.57;;;;;;;;;;5011934;28;20064;-44
2023/05/16 02:39:53;;;;;;;35.42;10.07;;;;;;;;;;5011713;28;20038;-44
2023/05/16 02:42:20;;;;;;;45.00;10.93;;;;;;;;;;5011814;28;20026;-44
2023/05/16 02:44:48;;;;;;;40.20;10.35;;;;;;;;;;5011815;28;20160;-44
2023/05/16 02:47:15;;;;;;;30.77;9.05;;;;;;;;;;5011796;28;20484;-44
2023/05/16 02:49:42;;;;;;;38.53;10.65;;;;;;;;;;5011626;28;20037;-44
2023/05/16 02:52:10;;;;;;;32.55;9.70;;;;;;;;;;5011800;28;20030;-45
2023/05/16 02:54:37;;;;;;;31.50;9.95;;;;;;;;;;5011670;28;20034;-46
2023/05/16 02:57:04;;;;;;;35.20;9.10;;;;;;;;;;5011604;28;20038;-44
2023/05/16 02:59:31;;;;;;;31.95;9.23;;;;;;;;;;5011686;28;20032;-44
2023/05/16 03:01:58;;;;;;;35.05;9.57;;;;;;;;;;5011642;28;20436;-44
2023/05/16 03:04:26;;;;;;;33.70;9.38;;;;;;;;;;5011357;28;20136;-44
2023/05/16 03:06:53;;;;;;;31.83;8.75;;;;;;;;;;5011612;28;20037;-44
2023/05/16 03:09:20;;;;;;;29.75;8.32;;;;;;;;;;5011604;28;20467;-44
2023/05/16 03:11:47;;;;;;;33.30;9.32;;;;;;;;;;5011467;28;20040;-44
2023/05/16 03:14:14;;;;;;;34.03;8.35;;;;;;;;;;5011633;28;20026;-44
2023/05/16 03:16:42;;;;;;;27.85;8.60;;;;;;;;;;5011572;28;20022;-45
2023/05/16 03:19:10;;;;;;;30.73;8.60;;;;;;;;;;5011498;28;20484;-44
2023/05/16 03:21:37;;;;;;;31.27;8.38;;;;;;;;;;5011415;28;20030;-44
2023/05/16 03:24:04;;;;;;;24.25;7.60;;;;;;;;;;5011528;28;20041;-44
2023/05/16 03:26:31;;;;;;;29.48;7.97;;;;;;;;;;5011549;28;20049;-44
2023/05/16 03:28:58;;;;;;;31.38;7.38;;;;;;;;;;5013456;28;20033;-44
2023/05/16 03:31:25;;;;;;;26.65;7.47;;;;;;;;;;5015140;28;20022;-44
2023/05/16 03:33:52;;;;;;;28.77;6.93;;;;;;;;;;5015085;28;20026;-44
2023/05/16 03:36:23;;;;;;;23.90;7.40;;;;;;;;;;5015128;28;20388;-44
2023/05/16 03:38:50;;;;;;;23.42;6.75;;;;;;;;;;5006985;28;20064;-44
2023/05/16 03:41:17;;;;;;;22.55;6.95;;;;;;;;;;5015007;28;20105;-44
2023/05/16 03:43:44;;;;;;;26.63;7.68;;;;;;;;;;5014867;28;20492;-44
2023/05/16 03:46:11;;;;;;;24.63;6.68;;;;;;;;;;4996987;28;20026;-44
2023/05/16 03:48:38;;;;;;;22.42;6.70;;;;;;;;;;5014871;28;20030;-46
2023/05/16 03:51:05;;;;;;;17.90;6.25;;;;;;;;;;5014756;28;20022;-45
2023/05/16 03:53:32;;;;;;;22.45;6.22;;;;;;;;;;5014871;28;20033;-44
2023/05/16 03:55:59;;;;;;;24.00;6.80;;;;;;;;;;5014780;28;20072;-46
2023/05/16 03:58:27;;;;;;;27.20;6.43;;;;;;;;;;5014640;28;20041;-44
2023/05/16 04:00:54;;;;;;;22.60;6.07;;;;;;;;;;5014812;28;20029;-44
2023/05/16 04:03:27;;;;;;;23.60;6.30;;;;;;;;;;5014515;28;20042;-45
2023/05/16 04:05:57;;;;;;;20.58;6.40;;;;;;;;;;5014526;28;20040;-44
2023/05/16 04:08:24;;;;;;;19.77;6.10;;;;;;;;;;5014437;28;20022;-43
2023/05/16 04:10:51;;;;;;;22.33;6.35;;;;;;;;;;5014422;28;20404;-43
2023/05/16 04:13:19;;;;;;;21.02;5.30;;;;;;;;;;5014590;28;20032;-42
2023/05/16 04:15:46;;;;;;;19.83;5.55;;;;;;;;;;5014501;28;20402;-43
2023/05/16 04:18:13;;;;;;;20.48;5.57;;;;;;;;;;5014321;28;20464;-42
2023/05/16 04:20:41;;;;;;;18.13;5.38;;;;;;;;;;5014240;28;20120;-43
2023/05/16 04:23:10;;;;;;;21.40;5.75;;;;;;;;;;5014367;28;20033;-42
2023/05/16 04:25:38;;;;;;;22.08;5.88;;;;;;;;;;5014152;28;20490;-43
2023/05/16 04:28:05;;;;;;;18.90;5.10;;;;;;;;;;5014269;28;20504;-42
2023/05/16 04:30:32;;;;;;;20.05;5.35;;;;;;;;;;5014056;28;20087;-42
2023/05/16 04:33:00;;;;;;;16.60;5.10;;;;;;;;;;5014134;28;20468;-42
2023/05/16 04:35:27;;;;;;;14.95;5.35;;;;;;;;;;5014064;28;20518;-42
2023/05/16 04:37:54;;;;;;;18.25;5.25;;;;;;;;;;5014081;28;20022;-42
2023/05/16 04:40:23;;;;;;;20.20;5.13;;;;;;;;;;5013177;28;20034;-43
2023/05/16 04:42:51;;;;;;;16.42;5.32;;;;;;;;;;4996381;28;20041;-42
2023/05/16 04:45:18;;;;;;;13.93;4.55;;;;;;;;;;5013741;28;20468;-42
2023/05/16 04:47:45;;;;;;;15.30;4.97;;;;;;;;;;5013851;28;20121;-43
2023/05/16 04:50:12;;;;;;;14.65;4.72;;;;;;;;;;5013710;28;20041;-43
2023/05/16 04:52:39;;;;;;;20.23;5.47;;;;;;;;;;5013673;28;20060;-44
2023/05/16 04:55:06;;;;;;;14.40;4.72;;;;;;;;;;5013740;28;20069;-43
2023/05/16 04:57:33;;;;;;;15.32;4.55;;;;;;;;;;5013559;28;20038;-42
2023/05/16 05:00:00;;;;;;;12.88;4.30;;;;;;;;;;5013547;28;20034;-42
2023/05/16 05:02:27;;;;;;;12.70;4.43;;;;;;;;;;5013512;28;20022;-43
2023/05/16 05:04:54;;;;;;;15.73;4.35;;;;;;;;;;5013418;28;20465;-42
2023/05/16 05:07:21;;;;;;;11.70;4.35;;;;;;;;;;5013495;28;20033;-42
2023/05/16 05:09:49;;;;;;;15.45;4.43;;;;;;;;;;5013287;28;20049;-43
2023/05/16 05:12:16;;;;;;;14.93;4.22;;;;;;;;;;5013316;28;20057;-43
2023/05/16 05:14:43;;;;;;;13.95;4.32;;;;;;;;;;5013349;28;20517;-42
2023/05/16 05:17:10;;;;;;;15.52;4.80;;;;;;;;;;5013409;28;20022;-42
2023/05/16 05:19:37;;;;;;;11.98;4.07;;;;;;;;;;5013231;28;20038;-42
2023/05/16 05:22:04;;;;;;;13.90;4.30;;;;;;;;;;5013127;28;20412;-43
2023/05/16 05:24:31;;;;;;;15.57;4.05;;;;;;;;;;5013211;28;20026;-42
2023/05/16 05:26:58;;;;;;;15.07;4.30;;;;;;;;;;5013116;28;20046;-42
2023/05/16 05:29:25;;;;;;;10.75;4.35;;;;;;;;;;5013092;28;20025;-43
2023/05/16 05:31:52;;;;;;;13.88;4.20;;;;;;;;;;5013019;28;20029;-43
2023/05/16 05:34:19;;;;;;;13.82;3.92;;;;;;;;;;5012962;28;20027;-42
2023/05/16 05:36:46;;;;;;;12.27;3.97;;;;;;;;;;5012814;28;20066;-43
2023/05/16 05:39:13;;;;;;;14.57;4.25;;;;;;;;;;5012732;28;20041;-43
2023/05/16 05:41:40;;;;;;;11.82;3.72;;;;;;;;;;5012783;28;20026;-42
2023/05/16 05:44:07;;;;;;;13.95;4.18;;;;;;;;;;5012871;28;20447;-42
2023/05/16 05:46:35;;;;;;;14.20;4.20;;;;;;;;;;5012765;28;20033;-42
2023/05/16 05:49:02;;;;;;;13.10;3.67;;;;;;;;;;5012875;28;20065;-42
2023/05/16 05:51:29;;;;;;;13.80;4.03;;;;;;;;;;5011811;28;20550;-43
2023/05/16 05:53:56;;;;;;;9.48;3.78;;;;;;;;;;5012676;28;20579;-42
2023/05/16 05:56:23;;;;;;;10.95;4.10;;;;;;;;;;5012535;28;20041;-43
2023/05/16 05:58:51;;;;;;;11.45;3.53;;;;;;;;;;5012446;28;20038;-42
2023/05/16 06:01:19;;;;;;;10.85;3.20;;;;;;;;;;5011136;28;20036;-44
2023/05/16 06:03:47;;;;;;;15.02;3.88;;;;;;;;;;5012230;28;20085;-44
2023/05/16 06:06:14;;;;;;;14.68;3.80;;;;;;;;;;5012520;28;20033;-44
2023/05/16 06:08:41;;;;;;;10.82;3.30;;;;;;;;;;5012372;28;20021;-44
2023/05/16 06:11:08;;;;;;;11.95;3.72;;;;;;;;;;5012230;28;20472;-44
2023/05/16 06:13:35;;;;;;;9.73;3.25;;;;;;;;;;5012405;28;20038;-44
2023/05/16 06:16:02;;;;;;;9.45;3.13;;;;;;;;;;5012321;28;20029;-44
2023/05/16 06:18:29;;;;;;;8.60;3.10;;;;;;;;;;5012160;28;20037;-44
2023/05/16 06:20:56;;;;;;;12.55;3.33;;;;;;;;;;5012167;28;20109;-44
2023/05/16 06:23:23;;;;;;;14.68;3.35;;;;;;;;;;5012153;28;20080;-45
2023/05/16 06:25:50;;;;;;;13.93;3.67;;;;;;;;;;5012176;28;20022;-44
2023/05/16 06:28:17;;;;;;;8.73;3.50;;;;;;;;;;5012151;28;20028;-44
2023/05/16 06:30:46;;;;;;;8.60;3.42;;;;;;;;;;5012093;28;20040;-47
2023/05/16 06:33:14;;;;;;;9.57;2.92;;;;;;;;;;5011970;28;20029;-44
2023/05/16 06:35:42;;;;;;;10.20;3.20;;;;;;;;;;5012029;28;20088;-44
2023/05/16 06:38:08;;;;;;;10.77;3.15;;;;;;;;;;5011994;28;20026;-44
2023/05/16 06:40:36;;;;;;;12.02;3.40;;;;;;;;;;5011869;28;20034;-44
2023/05/16 06:43:03;;;;;;;10.15;3.05;;;;;;;;;;5011891;28;20034;-44
2023/05/16 06:45:30;;;;;;;8.88;2.92;;;;;;;;;;5011864;28;20369;-46
2023/05/16 06:47:57;;;;;;;11.02;3.28;;;;;;;;;;5011925;28;20022;-44
2023/05/16 06:50:24;;;;;;;7.57;2.78;;;;;;;;;;5011882;28;20049;-44
2023/05/16 06:52:51;;;;;;;8.38;2.78;;;;;;;;;;5141495;22;20057;-34
2023/05/16 06:55:18;;;;;;;8.85;3.03;;;;;;;;;;5010632;28;20026;-36
2023/05/16 06:57:45;;;;;;;7.18;2.83;;;;;;;;;;5012372;28;20018;-35
2023/05/16 07:00:13;;;;;;;6.95;2.80;;;;;;;;;;5011787;28;20080;-36
2023/05/16 07:02:40;;;;;;;9.65;2.65;;;;;;;;;;5011815;28;20383;-35
2023/05/16 07:05:07;;;;;;;7.47;2.75;;;;;;;;;;5015812;28;20025;-36
2023/05/16 07:07:34;;;;;;;9.85;2.72;;;;;;;;;;5015769;28;20491;-35
2023/05/16 07:10:01;;;;;;;8.73;2.90;;;;;;;;;;5015696;28;20036;-35
2023/05/16 07:12:28;;;;;;;7.13;2.50;;;;;;;;;;5015337;28;20028;-35
2023/05/16 07:14:55;;;;;;;9.77;2.78;;;;;;;;;;5015590;28;20026;-35
2023/05/16 07:17:22;;;;;;;8.38;2.78;;;;;;;;;;5015512;28;20033;-35
2023/05/16 07:19:49;;;;;;;5.45;3.00;;;;;;;;;;5015418;28;20029;-36
2023/05/16 07:22:16;;;;;;;8.85;3.15;;;;;;;;;;5015361;28;20061;-35
2023/05/16 07:24:43;;;;;;;6.90;2.78;;;;;;;;;;5015290;28;20026;-35
2023/05/16 07:27:10;;;;;;;10.32;3.03;;;;;;;;;;5015369;28;20092;-36
2023/05/16 07:29:38;;;;;;;8.30;2.97;;;;;;;;;;5015361;28;20828;-36
2023/05/16 07:32:05;;;;;;;7.03;2.80;;;;;;;;;;5015282;28;20038;-35
2023/05/16 07:34:32;;;;;;;7.88;2.97;;;;;;;;;;5015168;28;20025;-36
2023/05/16 07:36:59;;;;;;;10.82;3.10;;;;;;;;;;5015148;28;20030;-35
2023/05/16 07:39:26;;;;;;;7.35;2.53;;;;;;;;;;5015096;28;20391;-35
2023/05/16 07:41:53;;;;;;;6.68;2.58;;;;;;;;;;5015148;28;20041;-35
2023/05/16 07:44:19;;;;;;;10.82;3.10;;;;;;;;;;5015034;28;20024;-36
2023/05/16 07:46:46;;;;;;;10.57;2.35;;;;;;;;;;5014998;28;20037;-35
2023/05/16 07:49:13;;;;;;;8.00;2.50;;;;;;;;;;5014898;28;20029;-35
2023/05/16 07:51:40;;;;;;;7.43;2.60;;;;;;;;;;5014950;28;20054;-36
2023/05/16 07:54:07;;;;;;;9.15;2.70;;;;;;;;;;5014617;28;20058;-35
2023/05/16 07:56:34;;;;;;;7.53;2.40;;;;;;;;;;5014894;28;20040;-35
2023/05/16 07:59:01;;;;;;;6.82;2.70;;;;;;;;;;5014705;28;20032;-35
2023/05/16 08:01:28;;;;;;;12.07;2.70;;;;;;;;;;5014667;28;20114;-35
2023/05/16 08:03:55;;;;;;;5.60;2.60;;;;;;;;;;5014635;28;20096;-35
2023/05/16 08:06:22;;;;;;;5.68;2.30;;;;;;;;;;5014627;28;20089;-35
2023/05/16 08:08:49;;;;;;;5.55;2.42;;;;;;;;;;5014615;28;20029;-36
2023/05/16 08:11:16;;;;;;;4.68;2.03;;;;;;;;;;5014541;28;20380;-35
2023/05/16 08:13:43;;;;;;;5.95;2.35;;;;;;;;;;5014365;28;20399;-36
2023/05/16 08:16:11;;;;;;;4.88;2.25;;;;;;;;;;5013457;28;20374;-35
2023/05/16 08:18:37;;;;;;;5.22;2.28;;;;;;;;;;5014336;28;20072;-35
2023/05/16 08:21:05;;;;;;;7.55;2.80;;;;;;;;;;5014336;28;20637;-36
2023/05/16 08:23:32;;;;;;;6.45;2.40;;;;;;;;;;5014157;28;20101;-36
2023/05/16 08:25:59;;;;;;;7.88;2.10;;;;;;;;;;5014279;28;20441;-35
2023/05/16 08:28:26;;;;;;;7.10;2.78;;;;;;;;;;5014177;28;20384;-36
2023/05/16 08:30:53;;;;;;;6.00;2.38;;;;;;;;;;5014206;28;20030;-35
2023/05/16 08:33:19;;;;;;;5.38;2.05;;;;;;;;;;5013971;28;20117;-35
2023/05/16 08:35:48;;;;;;;5.53;2.20;;;;;;;;;;5014059;28;20064;-35
2023/05/16 08:38:15;;;;;;;5.72;2.30;;;;;;;;;;5013944;28;20053;-35
2023/05/16 08:40:42;;;;;;;4.35;2.33;;;;;;;;;;5014007;28;20126;-36
2023/05/16 08:43:09;;;;;;;6.05;2.70;;;;;;;;;;5013923;28;20030;-36
2023/05/16 08:45:36;;;;;;;6.22;2.20;;;;;;;;;;5013961;28;20068;-36
2023/05/16 08:48:05;;;;;;;4.90;2.10;;;;;;;;;;5013855;28;20021;-36
2023/05/16 08:50:32;;;;;;;6.15;2.45;;;;;;;;;;5013827;28;20083;-35
2023/05/16 08:53:05;;;;;;;7.25;2.47;;;;;;;;;;5013558;28;20453;-36
2023/05/16 08:55:32;;;;;;;7.60;2.30;;;;;;;;;;5013683;28;20033;-35
2023/05/16 08:57:59;;;;;;;2.83;1.90;;;;;;;;;;5013532;28;20438;-35
2023/05/16 09:00:27;;;;;;;6.72;2.60;;;;;;;;;;5013552;28;20034;-35
2023/05/16 09:02:54;;;;;;;5.47;2.40;;;;;;;;;;5013362;28;20484;-36
2023/05/16 09:05:23;;;;;;;6.15;2.33;;;;;;;;;;5013505;28;20021;-36
2023/05/16 09:07:50;;;;;;;6.00;2.38;;;;;;;;;;5013517;28;20109;-35
2023/05/16 09:10:16;;;;;;;5.30;2.00;;;;;;;;;;5013401;28;20503;-36
2023/05/16 09:12:43;;;;;;;4.00;2.00;;;;;;;;;;5028448;28;20049;-36
2023/05/16 09:15:11;;;;;;;4.57;2.50;;;;;;;;;;5013358;28;20033;-35
2023/05/16 09:17:47;;;;;;;4.25;2.10;;;;;;;;;;5013308;28;20107;-35
2023/05/16 09:20:20;;;;;;;5.75;2.47;;;;;;;;;;5013085;28;20095;-35
2023/05/16 09:22:52;;;;;;;6.50;2.25;;;;;;;;;;5013098;28;20045;-35
2023/05/16 09:25:19;;;;;;;9.63;2.30;;;;;;;;;;5013189;28;20022;-35
2023/05/16 09:27:49;;;;;;;4.40;2.22;;;;;;;;;;5012784;28;20480;-35
2023/05/16 09:30:16;;;;;;;4.88;2.40;;;;;;;;;;5012414;28;20053;-38
2023/05/16 09:32:44;;;;;;;5.38;2.45;;;;;;;;;;5012541;28;20034;-36
2023/05/16 09:35:17;;;;;;;4.22;2.20;;;;;;;;;;5012835;28;20081;-36
2023/05/16 09:37:47;;;;;;;4.90;2.28;;;;;;;;;;5012857;28;20101;-38
2023/05/16 09:40:14;;;;;;;5.80;2.00;;;;;;;;;;5026472;28;20061;-35
2023/05/16 09:42:42;;;;;;;10.50;2.30;;;;;;;;;;5011768;28;20109;-37
2023/05/16 09:45:15;;;;;;;6.70;2.17;;;;;;;;;;5011669;28;20108;-37
2023/05/16 09:47:45;;;;;;;10.60;2.25;;;;;;;;;;5012192;28;20400;-38
2023/05/16 09:50:15;;;;;;;11.10;2.67;;;;;;;;;;5010739;28;20488;-38
2023/05/16 09:52:42;;;;;;;15.38;2.60;;;;;;;;;;5004809;28;20491;-35
2023/05/16 09:55:10;;;;;;;10.70;2.47;;;;;;;;;;5009343;28;20570;-35
2023/05/16 09:57:39;;;;;;;11.98;2.42;;;;;;;;;;5008759;28;20018;-35
2023/05/16 10:00:13;;;;;;;13.73;2.55;;;;;;;;;;5007443;28;20446;-37
2023/05/16 10:02:41;;;;;;;7.22;2.58;;;;;;;;;;5009124;28;20029;-36
2023/05/16 10:05:08;;;;;;;6.43;2.60;;;;;;;;;;5010675;28;20033;-37
2023/05/16 10:07:35;;;;;;;15.95;2.60;;;;;;;;;;5007281;28;20028;-36
2023/05/16 10:10:09;;;;;;;10.68;2.33;;;;;;;;;;5009883;28;20357;-38
2023/05/16 10:12:37;;;;;;;10.68;2.25;;;;;;;;;;5007968;28;20041;-38
2023/05/16 10:15:05;;;;;;;10.82;2.63;;;;;;;;;;5010698;28;20034;-37
2023/05/16 10:17:33;;;;;;;11.60;2.40;;;;;;;;;;5010853;28;21998;-37
2023/05/16 10:20:08;;;;;;;7.10;2.10;;;;;;;;;;5008333;28;20030;-38
2023/05/16 10:22:35;;;;;;;10.88;2.75;;;;;;;;;;5009270;28;20026;-38
2023/05/16 10:25:05;;;;;;;5.38;2.15;;;;;;;;;;5010628;28;20449;-37
2023/05/16 10:27:32;;;;;;;7.05;2.35;;;;;;;;;;5010525;28;20033;-36
2023/05/16 10:29:59;;;;;;;8.20;2.30;;;;;;;;;;5010443;28;20036;-37
2023/05/16 10:32:26;;;;;;;6.95;2.20;;;;;;;;;;5010380;28;20018;-37
2023/05/16 10:34:57;;;;;;;5.40;1.80;;;;;;;;;;5010097;28;20028;-37
2023/05/16 10:37:24;;;;;;;5.65;2.05;;;;;;;;;;5010693;28;20066;-36
2023/05/16 10:39:52;;;;;;;7.07;2.35;;;;;;;;;;5011444;28;20368;-34
2023/05/16 10:42:19;;;;;;;6.93;1.98;;;;;;;;;;5011547;28;20030;-34
2023/05/16 10:44:46;;;;;;;6.88;2.30;;;;;;;;;;5011760;28;20021;-35
2023/05/16 10:47:19;;;;;;;8.93;2.40;;;;;;;;;;5011751;28;20018;-35
2023/05/16 10:49:46;;;;;;;10.02;2.30;;;;;;;;;;5011775;28;20026;-35
2023/05/16 10:52:16;;;;;;;7.35;2.10;;;;;;;;;;5011549;28;20093;-35
2023/05/16 10:54:44;;;;;;;11.68;2.50;;;;;;;;;;5011494;28;20054;-35
2023/05/16 10:57:14;;;;;;;13.20;2.72;;;;;;;;;;5011545;28;20030;-35
2023/05/16 10:59:42;;;;;;;11.63;2.83;;;;;;;;;;5011508;28;20041;-35
2023/05/16 11:02:44;;;;;;;7.53;2.20;;;;;;;;;;5009790;28;20045;-35
2023/05/16 11:05:13;;;;;;;23.23;3.17;;;;;;;;;;4952074;28;20374;-35
2023/05/16 11:07:40;;;;;;;12.23;2.65;;;;;;;;;;5002999;28;20084;-34
2023/05/16 11:10:14;;;;;;;8.82;2.58;;;;;;;;;;5010818;28;20080;-35
2023/05/16 11:12:46;;;;;;;11.27;2.50;;;;;;;;;;5011391;28;20514;-35
2023/05/16 11:15:24;;;;;;;29.63;4.63;;;;;;;;;;5011513;28;20029;-35
2023/05/16 11:17:51;;;;;;;15.65;2.67;;;;;;;;;;5011526;28;20033;-35
2023/05/16 11:20:30;;;;;;;29.10;3.78;;;;;;;;;;5011392;28;20048;-35
2023/05/16 11:23:21;;;;;;;22.17;3.05;;;;;;;;;;5011436;28;20101;-35
2023/05/16 11:25:51;;;;;;;27.08;3.80;;;;;;;;;;5011425;28;20495;-35
2023/05/16 11:28:19;;;;;;;17.27;3.33;;;;;;;;;;5011408;28;20088;-34
2023/05/16 11:30:48;;;;;;;51.13;5.13;;;;;;;;;;5011455;28;20034;-43
2023/05/16 11:33:16;;;;;;;62.65;5.20;;;;;;;;;;5013295;28;20491;-44
2023/05/16 11:35:43;;;;;;;78.35;5.18;;;;;;;;;;5011176;28;20033;-36
2023/05/16 11:38:16;;;;;;;90.35;5.95;;;;;;;;;;5011266;28;20029;-36
2023/05/16 11:40:44;;;;;;;249.45;11.48;;;;;;;;;;5011141;28;20029;-39
2023/05/16 11:43:11;;;;;;;90.68;6.40;;;;;;;;;;5011244;28;20519;-37
2023/05/16 11:45:38;;;;;;;66.32;6.03;;;;;;;;;;5011321;28;20434;-37
2023/05/16 11:48:07;;;;;;;70.95;5.90;;;;;;;;;;5011244;28;20556;-36
2023/05/16 11:50:35;;;;;;;43.97;5.50;;;;;;;;;;5014209;28;20084;-37
2023/05/16 11:53:02;;;;;;;57.28;5.78;;;;;;;;;;5014517;28;20042;-37
2023/05/16 11:55:29;;;;;;;40.08;5.22;;;;;;;;;;5029935;28;20499;-37
2023/05/16 11:58:00;;;;;;;50.28;5.82;;;;;;;;;;5029969;28;20064;-36
2023/05/16 12:00:27;;;;;;;45.50;5.10;;;;;;;;;;5014670;28;20018;-36
2023/05/16 12:02:55;;;;;;;72.95;6.07;;;;;;;;;;5014577;28;20026;-38
2023/05/16 12:05:27;;;;;;;48.17;5.40;;;;;;;;;;5014467;28;20037;-36
2023/05/16 12:07:54;;;;;;;34.10;4.82;;;;;;;;;;5030025;28;20649;-34
2023/05/16 12:10:20;;;;;;;26.75;3.90;;;;;;;;;;5029581;28;20061;-34
2023/05/16 12:12:48;;;;;;;25.02;4.22;;;;;;;;;;5014292;28;20030;-34
2023/05/16 12:15:16;;;;;;;54.65;5.75;;;;;;;;;;5014395;28;20365;-40
2023/05/16 12:17:43;;;;;;;39.28;4.93;;;;;;;;;;5014285;28;20026;-41
2023/05/16 12:20:12;;;;;;;46.83;4.70;;;;;;;;;;5014188;28;20117;-40
2023/05/16 12:22:40;;;;;;;38.88;5.35;;;;;;;;;;5014080;28;20026;-40
2023/05/16 12:25:25;;;;;;;36.65;5.03;;;;;;;;;;5014164;28;20025;-40
2023/05/16 12:27:56;;;;;;;44.05;5.35;;;;;;;;;;5014036;28;20030;-40
2023/05/16 12:30:26;;;;;;;38.92;4.95;;;;;;;;;;5016248;28;20045;-40
2023/05/16 12:33:00;;;;;;;29.17;4.93;;;;;;;;;;5013974;28;20356;-40
2023/05/16 12:35:32;;;;;;;40.67;4.55;;;;;;;;;;5014013;28;20026;-40
2023/05/16 12:37:59;;;;;;;28.70;4.15;;;;;;;;;;5013832;28;20022;-41
2023/05/16 12:40:30;;;;;;;28.48;4.22;;;;;;;;;;5013909;28;20049;-41
2023/05/16 12:42:57;;;;;;;23.52;4.40;;;;;;;;;;5013886;28;20061;-40
2023/05/16 12:45:24;;;;;;;25.88;3.95;;;;;;;;;;5013975;28;20017;-40
2023/05/16 12:47:51;;;;;;;18.67;3.78;;;;;;;;;;5013780;28;20018;-43
2023/05/16 12:50:18;;;;;;;30.52;4.35;;;;;;;;;;5013667;28;20049;-40
2023/05/16 12:52:52;;;;;;;38.28;4.90;;;;;;;;;;5013465;28;20545;-42
2023/05/16 12:55:20;;;;;;;49.63;4.75;;;;;;;;;;5013704;28;20026;-40
2023/05/16 12:57:47;;;;;;;37.38;4.75;;;;;;;;;;5013584;28;20072;-40
2023/05/16 13:00:15;;;;;;;53.03;6.45;;;;;;;;;;5013692;28;20069;-40
2023/05/16 13:02:42;;;;;;;42.70;5.10;;;;;;;;;;5028044;28;20068;-41
2023/05/16 13:05:09;;;;;;;38.28;5.03;;;;;;;;;;5013420;28;20030;-41
2023/05/16 13:07:39;;;;;;;41.97;5.10;;;;;;;;;;5013456;28;20018;-41
2023/05/16 13:10:10;;;;;;;43.10;5.63;;;;;;;;;;5013349;28;20037;-42
2023/05/16 13:12:38;;;;;;;42.50;5.85;;;;;;;;;;5013131;28;20037;-40
2023/05/16 13:15:06;;;;;;;40.92;4.88;;;;;;;;;;5013187;28;20028;-40
2023/05/16 13:17:34;;;;;;;44.13;5.65;;;;;;;;;;5013119;28;20022;-40
2023/05/16 13:20:01;;;;;;;53.03;6.38;;;;;;;;;;5013148;28;20034;-40
2023/05/16 13:22:28;;;;;;;31.17;4.43;;;;;;;;;;5013021;28;20033;-40
2023/05/16 13:24:55;;;;;;;37.35;4.88;;;;;;;;;;5013017;28;20032;-41
2023/05/16 13:27:23;;;;;;;27.20;4.00;;;;;;;;;;5013044;28;20024;-40
2023/05/16 13:29:50;;;;;;;23.42;4.25;;;;;;;;;;5012870;28;20484;-41
2023/05/16 13:32:17;;;;;;;34.35;5.00;;;;;;;;;;5012799;28;20561;-41
2023/05/16 13:34:44;;;;;;;35.22;4.55;;;;;;;;;;5012855;28;20453;-41
2023/05/16 13:37:11;;;;;;;34.28;4.45;;;;;;;;;;5012813;28;20558;-43
2023/05/16 13:39:38;;;;;;;28.05;4.05;;;;;;;;;;5012726;28;20029;-41
2023/05/16 13:42:05;;;;;;;32.38;4.15;;;;;;;;;;5012450;28;20045;-40
2023/05/16 13:44:32;;;;;;;34.75;4.28;;;;;;;;;;5012579;28;20084;-40
2023/05/16 13:46:59;;;;;;;46.45;5.97;;;;;;;;;;5012638;28;20025;-40
2023/05/16 13:49:26;;;;;;;37.17;4.53;;;;;;;;;;5012561;28;20042;-40
2023/05/16 13:51:53;;;;;;;18.23;3.95;;;;;;;;;;5012472;28;20018;-40
2023/05/16 13:54:21;;;;;;;30.05;4.50;;;;;;;;;;5012243;28;20060;-41
2023/05/16 13:56:48;;;;;;;27.85;3.92;;;;;;;;;;5012421;28;20041;-40
2023/05/16 13:59:15;;;;;;;25.73;4.30;;;;;;;;;;5012458;28;20384;-40
2023/05/16 14:01:43;;;;;;;19.63;3.05;;;;;;;;;;5012246;28;20034;-40
2023/05/16 14:04:10;;;;;;;54.55;5.13;;;;;;;;;;5012383;28;20029;-41
2023/05/16 14:06:37;;;;;;;25.80;3.67;;;;;;;;;;5012360;28;20541;-41
2023/05/16 14:09:04;;;;;;;64.25;7.63;;;;;;;;;;5012348;28;20526;-41
2023/05/16 14:11:31;;;;;;;55.70;5.00;;;;;;;;;;5012203;28;20033;-41
2023/05/16 14:13:58;;;;;;;26.98;3.72;;;;;;;;;;5011324;28;20034;-42
2023/05/16 14:16:25;;;;;;;28.33;4.47;;;;;;;;;;5012053;28;20026;-43
2023/05/16 14:18:52;;;;;;;30.38;4.00;;;;;;;;;;5012142;28;20030;-42
2023/05/16 14:21:19;;;;;;;22.98;3.30;;;;;;;;;;5012080;28;20026;-41
2023/05/16 14:23:47;;;;;;;46.55;4.38;;;;;;;;;;5012014;28;20049;-43
2023/05/16 14:26:15;;;;;;;39.40;4.68;;;;;;;;;;5010006;28;20026;-45
2023/05/16 14:28:42;;;;;;;49.50;4.70;;;;;;;;;;5011966;28;20085;-41
2023/05/16 14:31:09;;;;;;;24.27;3.60;;;;;;;;;;5011725;28;20022;-43
2023/05/16 14:33:36;;;;;;;58.78;4.70;;;;;;;;;;5011907;28;20022;-40
2023/05/16 14:36:03;;;;;;;33.25;3.78;;;;;;;;;;5011928;28;20099;-41